createdAt,value
2023-02-03T00:00:28.945Z,7.10
2023-02-03T00:03:20.261Z,7.80
2023-02-03T00:05:49.430Z,6.30
2023-02-03T00:08:23.068Z,7.30
2023-02-03T00:10:53.960Z,6.00
2023-02-03T00:13:26.757Z,7.30
2023-02-03T00:15:55.875Z,6.80
2023-02-03T00:18:27.055Z,8.30
2023-02-03T00:20:58.201Z,9.60
2023-02-03T00:23:30.287Z,7.70
2023-02-03T00:26:10.694Z,9.10
2023-02-03T00:28:45.671Z,8.00
2023-02-03T00:31:24.432Z,8.40
2023-02-03T00:34:03.824Z,7.40
2023-02-03T00:36:32.508Z,8.20
2023-02-03T00:39:02.017Z,8.00
2023-02-03T00:41:34.364Z,7.60
2023-02-03T00:44:08.576Z,7.90
2023-02-03T00:46:39.714Z,7.50
2023-02-03T00:49:08.395Z,9.50
2023-02-03T00:51:46.006Z,8.70
2023-02-03T00:54:16.982Z,10.20
2023-02-03T00:56:45.996Z,22.80
2023-02-03T00:59:17.490Z,16.90
2023-02-03T01:01:56.316Z,22.20
2023-02-03T01:04:25.329Z,13.80
2023-02-03T01:06:58.376Z,12.30
2023-02-03T01:09:27.189Z,8.50
2023-02-03T01:11:55.867Z,9.50
2023-02-03T01:14:28.119Z,12.90
2023-02-03T01:17:06.882Z,8.50
2023-02-03T01:19:35.630Z,10.70
2023-02-03T01:22:04.128Z,12.70
2023-02-03T01:24:35.652Z,27.90
2023-02-03T01:27:06.302Z,11.90
2023-02-03T01:29:34.845Z,14.60
2023-02-03T01:32:03.938Z,22.70
2023-02-03T01:34:45.041Z,20.00
2023-02-03T01:37:17.223Z,16.90
2023-02-03T01:39:59.928Z,13.50
2023-02-03T01:42:33.861Z,17.10
2023-02-03T01:45:08.909Z,12.20
2023-02-03T01:47:47.170Z,13.80
2023-02-03T01:50:38.668Z,11.30
2023-02-03T01:53:12.562Z,11.50
2023-02-03T01:55:47.174Z,8.40
2023-02-03T01:58:28.431Z,9.20
2023-02-03T02:00:58.827Z,8.60
2023-02-03T02:03:38.387Z,8.00
2023-02-03T02:06:10.688Z,9.30
2023-02-03T02:08:42.410Z,8.10
2023-02-03T02:11:10.832Z,9.00
2023-02-03T02:13:49.521Z,8.30
2023-02-03T02:16:50.506Z,8.10
2023-02-03T02:19:46.773Z,7.20
2023-02-03T02:26:11.501Z,7.30
2023-02-03T02:29:15.278Z,6.50
2023-02-03T02:32:15.229Z,7.40
2023-02-03T02:35:16.809Z,6.70
2023-02-03T02:38:11.317Z,6.40
2023-02-03T02:41:08.507Z,7.60
2023-02-03T02:44:37.780Z,8.10
2023-02-03T02:47:22.741Z,8.40
2023-02-03T02:50:12.031Z,8.40
2023-02-03T02:52:44.775Z,7.90
2023-02-03T02:55:44.767Z,9.70
2023-02-03T02:58:21.777Z,8.40
2023-02-03T03:00:51.617Z,7.80
2023-02-03T03:03:29.175Z,9.00
2023-02-03T03:06:07.300Z,7.60
2023-02-03T03:08:55.991Z,7.40
2023-02-03T03:11:32.379Z,7.60
2023-02-03T03:14:03.003Z,9.00
2023-02-03T03:16:50.489Z,7.40
2023-02-03T03:19:24.930Z,7.70
2023-02-03T03:22:02.546Z,7.20
2023-02-03T03:24:37.998Z,8.70
2023-02-03T03:32:17.480Z,6.70
2023-02-03T03:34:46.285Z,8.60
2023-02-03T03:37:28.939Z,7.30
2023-02-03T03:40:09.247Z,9.50
2023-02-03T03:43:08.467Z,7.50
2023-02-03T03:46:06.689Z,8.80
2023-02-03T03:48:52.455Z,9.10
2023-02-03T03:51:49.508Z,8.00
2023-02-03T03:54:23.025Z,9.60
2023-02-03T03:57:03.629Z,6.90
2023-02-03T03:59:36.218Z,7.50
2023-02-03T04:02:05.269Z,7.30
2023-02-03T04:04:39.005Z,6.50
2023-02-03T04:07:07.544Z,6.80
2023-02-03T04:09:40.144Z,5.70
2023-02-03T04:12:24.752Z,5.70
2023-02-03T04:14:53.461Z,4.50
2023-02-03T04:17:22.105Z,5.50
2023-02-03T04:19:50.568Z,5.50
2023-02-03T04:22:19.132Z,4.80
2023-02-03T04:24:47.642Z,4.70
2023-02-03T04:27:16.400Z,3.90
2023-02-03T04:29:44.905Z,4.70
2023-02-03T04:32:13.261Z,4.70
2023-02-03T04:34:41.898Z,4.10
2023-02-03T04:37:10.308Z,4.90
2023-02-03T04:39:38.802Z,5.30
2023-02-03T04:42:07.300Z,5.20
2023-02-03T04:44:35.715Z,4.60
2023-02-03T04:47:04.187Z,3.70
2023-02-03T04:49:32.829Z,4.40
2023-02-03T04:52:01.577Z,4.80
2023-02-03T04:54:30.095Z,4.50
2023-02-03T04:56:58.775Z,5.40
2023-02-03T04:59:27.996Z,5.40
2023-02-03T05:01:56.427Z,5.50
2023-02-03T05:04:25.077Z,5.20
2023-02-03T05:06:53.607Z,4.80
2023-02-03T05:09:22.441Z,4.40
2023-02-03T05:11:51.575Z,5.30
2023-02-03T05:14:20.595Z,4.60
2023-02-03T05:17:09.173Z,5.40
2023-02-03T05:19:37.667Z,4.70
2023-02-03T05:22:06.178Z,4.80
2023-02-03T05:24:34.609Z,4.50
2023-02-03T05:27:03.110Z,4.70
2023-02-03T05:29:31.570Z,4.90
2023-02-03T05:32:00.087Z,4.40
2023-02-03T05:34:28.568Z,4.10
2023-02-03T05:36:57.044Z,5.20
2023-02-03T05:39:25.758Z,5.00
2023-02-03T05:41:55.913Z,6.30
2023-02-03T05:44:28.904Z,7.10
2023-02-03T05:46:59.460Z,6.20
2023-02-03T05:49:28.033Z,7.00
2023-02-03T05:51:57.336Z,5.20
2023-02-03T05:54:25.946Z,6.20
2023-02-03T05:56:54.434Z,5.70
2023-02-03T05:59:22.859Z,4.70
2023-02-03T06:01:51.372Z,5.90
2023-02-03T06:04:19.979Z,5.20
2023-02-03T06:06:48.431Z,5.30
2023-02-03T06:09:16.976Z,6.50
2023-02-03T06:11:46.305Z,6.00
2023-02-03T06:14:14.718Z,6.00
2023-02-03T06:16:43.237Z,5.90
2023-02-03T06:19:11.825Z,6.00
2023-02-03T06:21:40.337Z,6.90
2023-02-03T06:24:10.213Z,6.70
2023-02-03T06:26:38.602Z,6.60
2023-02-03T06:29:06.998Z,6.30
2023-02-03T06:31:35.548Z,6.70
2023-02-03T06:34:04.092Z,6.20
2023-02-03T06:36:32.487Z,6.40
2023-02-03T06:39:00.864Z,6.00
2023-02-03T06:41:30.739Z,6.70
2023-02-03T06:43:59.434Z,5.50
2023-02-03T06:46:30.293Z,5.90
2023-02-03T06:48:58.915Z,5.90
2023-02-03T06:51:27.485Z,5.90
2023-02-03T06:54:15.664Z,5.50
2023-02-03T06:56:44.440Z,6.00
2023-02-03T06:59:13.537Z,5.50
2023-02-03T07:01:42.033Z,5.30
2023-02-03T07:04:11.872Z,5.90
2023-02-03T07:06:42.777Z,7.10
2023-02-03T07:09:11.621Z,6.00
2023-02-03T07:11:40.455Z,6.10
2023-02-03T07:14:08.826Z,5.30
2023-02-03T07:16:37.641Z,5.60
2023-02-03T07:19:06.355Z,5.30
2023-02-03T07:21:35.084Z,6.20
2023-02-03T07:24:03.874Z,5.60
2023-02-03T07:26:32.227Z,4.90
2023-02-03T07:29:00.932Z,3.50
2023-02-03T07:31:29.586Z,3.30
2023-02-03T07:33:58.252Z,3.80
2023-02-03T07:36:28.202Z,4.40
2023-02-03T07:38:56.710Z,4.20
2023-02-03T07:41:25.171Z,5.00
2023-02-03T07:43:53.616Z,5.10
2023-02-03T07:46:22.192Z,5.40
2023-02-03T07:48:50.676Z,5.30
2023-02-03T07:51:19.265Z,4.50
2023-02-03T07:53:47.675Z,4.60
2023-02-03T07:56:16.072Z,4.90
2023-02-03T07:58:44.459Z,5.30
2023-02-03T08:01:16.576Z,4.20
2023-02-03T08:03:45.105Z,6.80
2023-02-03T08:06:16.170Z,6.30
2023-02-03T08:08:47.562Z,6.10
2023-02-03T08:11:16.015Z,5.40
2023-02-03T08:13:44.465Z,4.40
2023-02-03T08:16:12.934Z,4.80
2023-02-03T08:18:41.524Z,4.40
2023-02-03T08:21:09.916Z,4.60
2023-02-03T08:23:38.495Z,3.30
2023-02-03T08:26:06.972Z,4.60
2023-02-03T08:28:35.387Z,4.10
2023-02-03T08:31:22.212Z,4.40
2023-02-03T08:34:09.501Z,3.40
2023-02-03T08:48:20.450Z,4.10
2023-02-03T08:50:53.027Z,4.10
2023-02-03T08:53:27.420Z,4.40
2023-02-03T08:55:57.178Z,3.70
2023-02-03T08:58:28.869Z,4.00
2023-02-03T09:01:06.617Z,5.00
2023-02-03T09:03:35.702Z,4.30
2023-02-03T09:06:05.802Z,3.80
2023-02-03T09:08:34.351Z,3.80
2023-02-03T09:11:02.993Z,4.50
2023-02-03T09:13:33.020Z,4.70
2023-02-03T09:16:01.701Z,4.60
2023-02-03T09:18:30.089Z,4.70
2023-02-03T09:21:08.114Z,5.30
2023-02-03T09:23:36.705Z,4.70
2023-02-03T09:26:07.921Z,3.90
2023-02-03T09:28:36.786Z,3.60
2023-02-03T09:31:12.461Z,5.20
2023-02-03T09:33:41.335Z,4.70
2023-02-03T09:36:11.024Z,4.10
2023-02-03T09:38:39.686Z,5.70
2023-02-03T09:41:12.074Z,4.40
2023-02-03T09:44:03.559Z,4.20
2023-02-03T09:47:09.625Z,4.30
2023-02-03T09:49:43.890Z,4.60
2023-02-03T09:52:19.932Z,6.00
2023-02-03T09:55:40.905Z,5.60
2023-02-03T09:58:21.326Z,6.70
2023-02-03T10:01:01.778Z,13.50
2023-02-03T10:03:53.921Z,12.50
2023-02-03T10:06:31.645Z,13.50
2023-02-03T10:09:44.735Z,17.80
2023-02-03T10:12:29.653Z,13.60
2023-02-03T10:15:28.035Z,13.40
2023-02-03T10:18:06.357Z,22.40
2023-02-03T10:20:43.120Z,7.50
2023-02-03T10:23:35.261Z,12.80
2023-02-03T10:26:09.018Z,13.50
2023-02-03T10:28:55.098Z,11.20
2023-02-03T10:31:27.746Z,11.70
2023-02-03T10:34:22.990Z,6.70
2023-02-03T10:36:55.219Z,7.10
2023-02-03T10:39:47.622Z,8.20
2023-02-03T10:42:17.580Z,5.80
2023-02-03T10:44:54.134Z,5.30
2023-02-03T10:47:39.434Z,4.50
2023-02-03T10:50:31.401Z,4.10
2023-02-03T10:53:17.967Z,12.50
2023-02-03T10:55:51.012Z,8.90
2023-02-03T10:58:31.689Z,15.80
2023-02-03T11:01:16.338Z,7.40
2023-02-03T11:04:04.312Z,4.90
2023-02-03T11:06:34.494Z,5.10
2023-02-03T11:09:27.350Z,4.70
2023-02-03T11:12:14.982Z,4.00
2023-02-03T11:14:50.070Z,2.80
2023-02-03T11:17:29.980Z,5.00
2023-02-03T11:20:14.605Z,2.90
2023-02-03T11:22:44.859Z,2.50
2023-02-03T11:25:20.617Z,1.90
2023-02-03T11:27:49.317Z,2.10
2023-02-03T11:30:26.575Z,2.10
2023-02-03T11:32:56.308Z,2.00
2023-02-03T11:35:27.260Z,1.40
2023-02-03T11:37:59.093Z,1.40
2023-02-03T11:40:33.990Z,1.50
2023-02-03T11:43:18.961Z,1.90
2023-02-03T11:45:59.433Z,1.50
2023-02-03T11:48:57.547Z,2.40
2023-02-03T11:51:55.860Z,2.30
2023-02-03T11:54:45.493Z,2.70
2023-02-03T11:57:30.620Z,3.40
2023-02-03T12:00:18.770Z,9.10
2023-02-03T12:03:19.503Z,5.10
2023-02-03T12:06:15.533Z,2.50
2023-02-03T12:09:08.133Z,2.70
2023-02-03T12:12:12.086Z,2.20
2023-02-03T12:15:22.410Z,1.90
2023-02-03T12:18:11.967Z,2.20
2023-02-03T12:20:57.652Z,2.70
2023-02-03T12:23:47.875Z,1.60
2023-02-03T12:26:25.208Z,2.60
2023-02-03T12:29:04.536Z,2.10
2023-02-03T12:32:32.264Z,2.90
2023-02-03T12:35:32.088Z,3.40
2023-02-03T12:38:22.355Z,3.10
2023-02-03T12:40:59.938Z,3.90
2023-02-03T12:43:50.752Z,3.10
2023-02-03T12:46:35.275Z,3.90
2023-02-03T12:49:31.423Z,3.50
2023-02-03T12:52:17.759Z,3.60
2023-02-03T12:55:08.162Z,4.00
2023-02-03T12:57:44.127Z,4.00
2023-02-03T13:00:35.227Z,3.60
2023-02-03T13:03:26.107Z,3.30
2023-02-03T13:06:22.714Z,5.90
2023-02-03T13:09:14.931Z,4.00
2023-02-03T13:12:08.982Z,2.90
2023-02-03T13:14:42.638Z,3.00
2023-02-03T13:17:47.581Z,3.20
2023-02-03T13:20:21.435Z,3.20
2023-02-03T13:22:51.248Z,4.20
2023-02-03T13:25:56.034Z,2.90
2023-02-03T13:28:53.552Z,6.70
2023-02-03T13:31:35.840Z,3.60
2023-02-03T13:34:32.142Z,3.90
2023-02-03T13:39:50.287Z,2.00
2023-02-03T13:42:34.279Z,2.10
2023-02-03T13:45:36.297Z,2.00
2023-02-03T13:48:20.855Z,1.80
2023-02-03T13:51:01.493Z,1.60
2023-02-03T13:53:36.551Z,2.30
2023-02-03T13:56:09.334Z,2.60
2023-02-03T13:58:39.784Z,2.10
2023-02-03T14:01:35.819Z,2.10
2023-02-03T14:04:09.566Z,2.00
2023-02-03T14:06:41.586Z,1.50
2023-02-03T14:09:23.448Z,2.00
2023-02-03T14:12:17.235Z,2.50
2023-02-03T14:15:20.706Z,2.00
2023-02-03T14:17:52.236Z,2.70
2023-02-03T14:20:34.470Z,2.80
2023-02-03T14:23:13.947Z,2.10
2023-02-03T14:25:48.375Z,2.50
2023-02-03T14:28:39.275Z,2.20
2023-02-03T14:31:23.856Z,1.90
2023-02-03T14:34:08.740Z,2.30
2023-02-03T14:36:46.651Z,4.40
2023-02-03T14:39:33.954Z,3.30
2023-02-03T14:42:23.691Z,4.60
2023-02-03T14:45:36.807Z,4.10
2023-02-03T14:48:29.857Z,2.20
2023-02-03T14:51:52.396Z,2.40
2023-02-03T14:54:31.044Z,2.10
2023-02-03T14:57:39.984Z,2.10
2023-02-03T15:00:20.755Z,2.90
2023-02-03T15:03:09.079Z,2.20
2023-02-03T15:05:50.197Z,2.70
2023-02-03T15:08:44.420Z,3.30
2023-02-03T15:11:32.361Z,3.80
2023-02-03T15:14:25.593Z,4.30
2023-02-03T15:16:58.632Z,2.50
2023-02-03T15:19:41.949Z,2.90
2023-02-03T15:22:29.756Z,3.20
2023-02-03T15:25:05.709Z,3.10
2023-02-03T15:27:36.040Z,2.80
2023-02-03T15:30:18.748Z,4.90
2023-02-03T15:33:02.907Z,4.80
2023-02-03T15:35:34.227Z,4.70
2023-02-03T15:38:09.008Z,4.00
2023-02-03T15:40:44.922Z,4.30
2023-02-03T15:43:38.555Z,5.70
2023-02-03T15:46:39.347Z,4.90
2023-02-03T15:49:19.252Z,5.50
2023-02-03T15:52:17.354Z,5.80
2023-02-03T15:54:54.720Z,5.70
2023-02-03T15:57:33.887Z,4.90
2023-02-03T16:00:30.837Z,6.00
2023-02-03T16:03:03.568Z,6.80
2023-02-03T16:05:37.249Z,5.00
2023-02-03T16:08:51.546Z,5.30
2023-02-03T16:11:36.845Z,5.00
2023-02-03T16:14:33.313Z,6.90
2023-02-03T16:17:06.008Z,6.80
2023-02-03T16:19:40.286Z,5.30
2023-02-03T16:22:36.335Z,6.20
2023-02-03T16:25:26.103Z,4.90
2023-02-03T16:28:32.592Z,4.30
2023-02-03T16:31:39.307Z,5.70
2023-02-03T16:34:36.541Z,4.30
2023-02-03T16:37:51.045Z,5.20
2023-02-03T16:40:42.447Z,4.30
2023-02-03T16:43:32.868Z,4.40
2023-02-03T16:46:20.062Z,5.10
2023-02-03T16:49:07.125Z,6.30
2023-02-03T16:51:42.006Z,6.60
2023-02-03T16:54:14.515Z,4.30
2023-02-03T16:56:42.915Z,4.60
2023-02-03T16:59:11.459Z,4.70
2023-02-03T17:01:39.972Z,8.50
2023-02-03T17:04:08.578Z,5.60
2023-02-03T17:06:41.471Z,6.70
2023-02-03T17:09:10.220Z,6.90
2023-02-03T17:11:39.412Z,5.80
2023-02-03T17:14:07.882Z,5.30
2023-02-03T17:16:36.227Z,5.10
2023-02-03T17:19:05.138Z,5.20
2023-02-03T17:21:33.472Z,7.90
2023-02-03T17:24:02.035Z,5.60
2023-02-03T17:26:31.650Z,6.10
2023-02-03T17:29:03.191Z,8.30
2023-02-03T17:31:32.620Z,6.90
2023-02-03T17:34:01.666Z,9.00
2023-02-03T17:36:30.133Z,9.00
2023-02-03T17:55:36.001Z,7.60
2023-02-03T17:58:04.594Z,6.70
2023-02-03T18:00:33.252Z,6.70
2023-02-03T18:03:01.891Z,7.00
2023-02-03T18:05:30.452Z,7.20
2023-02-03T18:08:03.114Z,6.90
2023-02-03T18:10:42.557Z,10.30
2023-02-03T18:13:11.022Z,7.80
2023-02-03T18:15:39.576Z,7.50
2023-02-03T18:18:08.976Z,6.30
2023-02-03T18:20:38.105Z,8.60
2023-02-03T18:23:06.792Z,7.50
2023-02-03T18:25:35.941Z,9.30
2023-02-03T18:28:04.635Z,5.60
2023-02-03T18:30:33.702Z,5.90
2023-02-03T18:33:03.825Z,6.60
2023-02-03T18:35:35.131Z,6.30
2023-02-03T18:38:05.185Z,5.70
2023-02-03T18:40:35.747Z,6.60
2023-02-03T18:43:04.431Z,6.60
2023-02-03T18:45:34.650Z,7.00
2023-02-03T18:48:03.177Z,6.20
2023-02-03T18:50:32.514Z,8.80
2023-02-03T18:53:02.024Z,8.00
2023-02-03T18:55:31.644Z,7.90
2023-02-03T18:58:00.105Z,8.10
2023-02-03T19:00:29.054Z,7.30
2023-02-03T19:02:57.723Z,7.80
2023-02-03T19:05:26.352Z,7.30
2023-02-03T19:07:54.823Z,6.40
2023-02-03T19:10:23.234Z,6.30
2023-02-03T19:12:51.570Z,5.30
2023-02-03T19:15:21.907Z,6.70
2023-02-03T19:17:51.889Z,6.60
2023-02-03T19:20:22.363Z,7.20
2023-02-03T19:22:51.618Z,6.70
2023-02-03T19:25:20.344Z,6.40
2023-02-03T19:27:48.754Z,6.60
2023-02-03T19:30:17.734Z,7.50
2023-02-03T19:32:46.161Z,6.90
2023-02-03T19:35:15.451Z,6.30
2023-02-03T19:37:43.840Z,5.20
2023-02-03T19:40:12.394Z,6.30
2023-02-03T19:42:40.922Z,7.00
2023-02-03T19:45:10.109Z,7.20
2023-02-03T19:47:38.529Z,5.70
2023-02-03T19:50:07.196Z,6.70
2023-02-03T19:52:36.076Z,5.70
2023-02-03T19:55:04.897Z,7.50
2023-02-03T19:57:33.449Z,5.70
2023-02-03T20:00:03.679Z,7.00
2023-02-03T20:02:32.103Z,5.60
2023-02-03T20:05:00.706Z,5.20
2023-02-03T20:07:32.575Z,6.90
2023-02-03T20:10:01.168Z,5.50
2023-02-03T20:12:32.009Z,5.70
2023-02-03T20:15:01.402Z,6.00
2023-02-03T20:17:29.973Z,6.10
2023-02-03T20:19:59.015Z,4.80
2023-02-03T20:22:27.899Z,5.20
2023-02-03T20:24:56.343Z,5.90
2023-02-03T20:27:25.607Z,5.70
2023-02-03T20:29:56.063Z,6.30
2023-02-03T20:32:27.981Z,5.40
2023-02-03T20:34:57.020Z,4.90
2023-02-03T20:37:25.891Z,5.70
2023-02-03T20:39:54.325Z,5.00
2023-02-03T20:42:23.932Z,3.60
2023-02-03T20:44:52.807Z,4.10
2023-02-03T20:47:22.881Z,5.20
2023-02-03T20:49:51.264Z,4.70
2023-02-03T20:52:21.401Z,3.60
2023-02-03T20:54:49.907Z,4.10
2023-02-03T20:57:19.796Z,3.90
2023-02-03T20:59:50.386Z,4.10
2023-02-03T21:02:46.965Z,4.50
2023-02-03T21:05:27.348Z,4.80
2023-02-03T21:07:55.790Z,5.60
2023-02-03T21:10:25.692Z,4.70
2023-02-03T21:12:55.256Z,5.50
2023-02-03T21:15:30.323Z,4.20
2023-02-03T21:17:59.110Z,5.80
2023-02-03T21:20:38.848Z,4.10
2023-02-03T21:23:12.622Z,4.90
2023-02-03T21:25:41.999Z,4.80
2023-02-03T21:28:29.647Z,4.50
2023-02-03T21:30:59.344Z,5.50
2023-02-03T21:33:42.260Z,4.40
2023-02-03T21:36:23.958Z,4.10
2023-02-03T21:38:59.756Z,3.50
2023-02-03T21:41:33.720Z,4.50
2023-02-03T21:44:02.393Z,4.10
2023-02-03T21:46:33.819Z,3.70
2023-02-03T21:49:04.271Z,5.80
2023-02-03T21:51:39.444Z,4.40
2023-02-03T21:58:41.202Z,3.90
2023-02-03T22:01:28.595Z,3.80
2023-02-03T22:03:58.996Z,4.30
2023-02-03T22:06:44.321Z,3.90
2023-02-03T22:09:20.336Z,3.80
2023-02-03T22:11:49.100Z,3.60
2023-02-03T22:14:20.850Z,3.90
2023-02-03T22:16:49.596Z,4.10
2023-02-03T22:19:18.106Z,4.90
2023-02-03T22:21:54.463Z,3.90
2023-02-03T22:24:23.229Z,4.40
2023-02-03T22:26:52.807Z,4.00
2023-02-03T22:29:23.742Z,4.50
2023-02-03T22:31:52.281Z,3.90
2023-02-03T22:34:21.976Z,4.20
2023-02-03T22:36:50.609Z,3.60
2023-02-03T22:39:19.217Z,6.00
2023-02-03T22:41:47.875Z,3.40
2023-02-03T22:44:17.952Z,3.80
2023-02-03T22:46:48.056Z,3.80
2023-02-03T22:49:16.794Z,3.30
2023-02-03T22:51:45.979Z,3.00
2023-02-03T22:54:14.392Z,3.00
2023-02-03T22:56:42.901Z,3.80
2023-02-03T22:59:11.389Z,3.80
2023-02-03T23:01:41.629Z,3.50
2023-02-03T23:04:10.226Z,3.30
2023-02-03T23:06:38.730Z,3.60
2023-02-03T23:09:07.122Z,3.50
2023-02-03T23:11:35.653Z,3.40
2023-02-03T23:14:14.438Z,3.30
2023-02-03T23:16:46.963Z,3.90
2023-02-03T23:19:15.460Z,2.20
2023-02-03T23:21:44.500Z,2.90
2023-02-03T23:24:13.022Z,2.60
2023-02-03T23:26:41.638Z,3.00
2023-02-03T23:29:11.815Z,2.50
2023-02-03T23:31:40.422Z,2.60
2023-02-03T23:34:27.826Z,2.30
2023-02-03T23:39:41.564Z,2.30
2023-02-03T23:42:10.084Z,2.00
2023-02-03T23:44:38.536Z,2.40
2023-02-03T23:47:07.873Z,2.10
2023-02-03T23:49:36.964Z,1.70
2023-02-03T23:52:05.932Z,1.60
2023-02-03T23:54:54.862Z,1.20
2023-02-03T23:57:23.413Z,1.70
2023-02-03T23:59:51.935Z,1.60
